Friday, December 14, 2018, 1:15 PM EST
Back to Local

KORH, Worcester Regional Airport

Location: Worcester, MA, United States Lat: 42.267
Local Time: 1:15 PM EST (18:15 GMT) Lon: -71.867
Time Zone: US/Eastern Elev: 1010 ft

Show me the last for .
Show Decoded

2018-12-14 12:54 METAR KORH 141754Z 20010KT 10SM OVC050 05/M01 A3038 RMK AO2 SLP300 T00501011
                 10050 21039 58033 =
2018-12-14 11:54 METAR KORH 141654Z 20008KT 10SM BKN055 05/M01 A3042 RMK AO2 SLP313 T00501006 =
2018-12-14 10:54 METAR KORH 141554Z 20008KT 10SM CLR 03/M01 A3046 RMK AO2 SLP329 T00331006 =
2018-12-14 09:54 METAR KORH 141454Z 19010KT 10SM CLR 02/M01 A3048 RMK AO2 SLP336 T00171006 50005
                 =
2018-12-14 08:54 METAR KORH 141354Z 22006KT 10SM CLR M01/M02 A3050 RMK AO2 SLP343 T10061022 =
2018-12-14 07:54 METAR KORH 141254Z 21006KT 10SM CLR M03/M04 A3048 RMK AO2 SLP337 T10281044 =
2018-12-14 06:54 METAR KORH 141154Z 18006KT 10SM CLR M03/M04 A3047 RMK AO2 SLP333 T10281044 11028
                 21039 55000 =
2018-12-14 05:54 METAR KORH 141054Z 19004KT 10SM OVC037 M03/M05 A3046 RMK AO2 SLP331 T10281050 =
2018-12-14 04:54 METAR KORH 140954Z AUTO 16003KT 10SM OVC038 M03/M06 A3046 RMK AO2 SLP332
                 T10281061 =
2018-12-14 03:54 METAR KORH 140854Z AUTO 00000KT 10SM OVC040 M03/M07 A3047 RMK AO2 SLP332
                 T10281072 58014 =
2018-12-14 03:01 METAR KORH 140801Z AUTO 06004KT 10SM SCT012 OVC040 M03/M07 A3048 RMK AO2
                 T10331072 =
2018-12-14 02:54 METAR KORH 140754Z AUTO 10003KT 10SM BKN012 OVC040 M03/M07 A3049 RMK AO2 SLP339
                 T10281072 =
2018-12-14 01:54 METAR KORH 140654Z AUTO 07003KT 10SM OVC014 M03/M08 A3050 RMK AO2 SLP346
                 T10331078 =
2018-12-14 01:42 METAR KORH 140642Z AUTO 07003KT 10SM OVC014 M03/M08 A3050 RMK AO2 T10331078 =
2018-12-14 00:54 METAR KORH 140554Z 14003KT 10SM BKN021 OVC046 M03/M07 A3051 RMK AO2 SLP347
                 T10281072 11028 21039 53001 =
2018-12-14 00:36 METAR KORH 140536Z 00000KT 10SM SCT023 OVC047 M03/M07 A3051 RMK AO2 T10281072 =
2018-12-14 00:18 METAR KORH 140518Z 00000KT 10SM BKN024 OVC048 M03/M07 A3051 =
2018-12-13 23:54 METAR KORH 140454Z 00000KT 10SM FEW020 OVC047 M03/M08 A3050 RMK AO2 SLP346
                 T10281078 410281094 =
2018-12-13 22:54 METAR KORH 140354Z 00000KT 10SM OVC050 M03/M08 A3050 RMK AO2 SLP345 T10331083 =
2018-12-13 21:54 METAR KORH 140254Z 02004KT 10SM OVC050 M04/M08 A3050 RMK AO2 SLP348 T10391083
                 50005 =
2018-12-13 20:54 METAR KORH 140154Z 05003KT 10SM OVC050 M04/M09 A3051 RMK AO2 SLP350 T10391089 =
2018-12-13 19:54 METAR KORH 140054Z 04003KT 10SM FEW041 OVC048 M03/M09 A3050 RMK AO2 SLP347
                 T10331089 =
2018-12-13 18:54 METAR KORH 132354Z 09003KT 10SM OVC044 M04/M09 A3049 RMK AO2 SLP343 60000
                 T10391089 11028 21039 51006 =
2018-12-13 17:54 METAR KORH 132254Z 06003KT 10SM BKN050 M03/M09 A3049 RMK AO2 SLP342 T10331089 =
2018-12-13 16:54 METAR KORH 132154Z 10003KT 10SM BKN047 OVC120 M03/M09 A3048 RMK AO2 SLP339
                 T10331089 =
2018-12-13 15:54 METAR KORH 132054Z 11005KT 10SM OVC070 M03/M08 A3047 RMK AO2 SLP337 60000
                 T10331083 53007 =
2018-12-13 14:54 METAR KORH 131954Z 09006KT 9SM OVC038 M03/M08 A3046 RMK AO2 SNB38E54 SLP334
                 P0000 T10331083 =
2018-12-13 13:54 METAR KORH 131854Z 08004KT 10SM OVC040 M03/M09 A3045 RMK AO2 SLP329 T10331094 =

Support USWX by starting your Amazon purchase here.